Pagina principale
METAR-TAF:

METAR-TAF

Aeroporti :

Aeroporto di Firenze-Peretola

Firenze, Italia

latitudine: 43-48N, longitudine: 011-12E, altezza: 40 m

Osservazione

Il bollettino è stato emesso 16 minuti fa, alle 19:20 UTC
Vento 4 kt da direzioni variabili
Temperature 21°C
Umidità 46%
Pressione 1016 hPa
Visibilità 10 km o più
nessuna nube inferiore a 1500 m e nessun cumulonembo

METAR: LIRQ 231920Z VRB04KT CAVOK 21/09 Q1016

Ora: 21:36 (19:36 UTC)

Previsione

Il bollettino è stato emesso 2 ore e 36 minuti fa, alle 17:00 UTC
Previsione valida dal 23 alle 18 UTC al 24 alle 18 UTC
Vento 12 kt da nord-est
Visibilità 10 km o più
Nubi sparse ad un'altezza di 4000 ft
Evoluzione graduale
dal 23 alle 18 UTC al 23 alle 20 UTC
Vento 5 kt da direzioni variabili
Evoluzione graduale
dal 24 alle 09 UTC al 24 alle 11 UTC
Vento 12 kt da nord-est

TAF: LIRQ 231700Z 2318/2418 04012KT 9999 SCT040 BECMG 2318/2320 VRB05KT BECMG 2409/2411 05012KT

Osservazioni e previsioni meteorologiche di più di 4000 aeroporti (messaggi METAR e TAF).

Le stazioni disponibili sono rappresentate dai dischi gialli e rossi sulla carta.

Puntare il mouse per vedere il nome della stazione.

Clicca sopra per visualizzare le osservazioni e previsioni meteorologiche.

Per cambiare la mappa : fare clic sui pulsanti verdi con una croce nera per ingrandire, il pulsante verde con un trattino per diminuire, o sulla freccia verde per le mappe adiacenti.


METAR-TAF: